Lake Arrowhead, CA

1:52 PM PDT on September 22, 2014 (GMT -0700)
San Bernardino International | Change Station
CLOSE
Current Station
Airport
Location: San Bernardino,
Elevation: 1158 ft
Nearby Weather Stations

Elev 1158 ft 34.09 °N, 117.25 °W | Updated 1 hour ago

Clear
Clear
86 °F
Feels Like 86 °F
N
9
Wind Variable Wind from SSW

Today
High -- | Low -- °F
--% Chance of Precip.
Yesterday
High -- | Low -- °F
Precip. -- in
6:36 AM 6:45 PM
Waning Crescent, 2% visible
Pressure 29.96 in
Visibility 7.0 miles
Clouds Clear
Dew Point 52 °F
Humidity 31%
Rainfall 0.00 in
Snow Depth 0 in , 0 in , 0 in
UV 9 out of 12
Pollen 6.60 out of 12
Ozone Good
PM2.5 Good
Flu Activity Not available.
METAR KSBD 221950Z 20008KT 7SM SKC 30/11 A2996

More Conditions Fewer Conditions

Pressure 29.96 in
Visibility 7.0 miles
Clouds Clear
Dew Point 52 °F
Humidity 31%
Rainfall 0.00 in
Snow Depth 0 in , 0 in , 0 in
UV 9 out of 12
Pollen 6.60 out of 12
Ozone Good
PM2.5 Good
Flu Activity Not available.
METAR KSBD 221950Z 20008KT 7SM SKC 30/11 A2996

More Conditions Fewer Conditions

10-Day Weather Forecast

Almanac

Astronomy

Sep. 22, 2014 Rise Set
Actual Time 6:36 AM PDT 6:45 PM PDT
Civil Twilight 6:11 AM PDT 7:10 PM PDT
Nautical Twilight 5:42 AM PDT 7:39 PM PDT
Astronomical Twilight 5:13 AM PDT 8:09 PM PDT
Moon 5:12 AM PDT 5:54 PM PDT
Length of Visible Light 12h 58m
Length of Day
12h 08m
Tomorrow will be 2m 7s shorter.
Waning Crescent, 2% of the Moon is Illuminated
Today
Waning Crescent
Sep 24
New
Oct 1
First Quarter
Oct 8
Full
Oct 15
Last Quarter

Today's Extremes

State Highs State Lows

Community

WunderPhotos

Upload Photos

1,755,522 photos uploaded!

WunderBlogs® & News

Nearby

Air Quality

  Air Quality AQ Index Pollutant
Yesterday Moderate
OZONE
Yesterday Good
PM2.5
Current Good
OZONE
Current Good
PM2.5
Tuesday Unhealthy for Sensitive Groups
OZONE
Tuesday Good
PM10
Tuesday Good
CO
Tuesday Good
NO2

Snow Depth

Station Depth Elevation
Summit Meadow 0 in 9122 ft
Rubicon #2 0 in 7500 ft
Leavitt Meadows 0 in 7200 ft
CSS Lab 3 in 6900 ft
Adin Mountain 0 in 6200 ft

Earthquake Activity

City Distance Mag. Time & Date
Big Bear Lake, California 9 miles 2.5 7:26 AM PDT
2014-09-22
Borrego Springs, California 87 miles 2.6 7:34 AM PDT
2014-09-21
Inyokern, California 129 miles 3.1 5:33 PM PDT
2014-09-19
Aguanga, California 59 miles 2.5 1:38 AM PDT
2014-09-19
Minimum magnitude displayed is 2.5.

Coastal Water Temperatures

Place Temperature
No Stations Reporting

Nearby Weather Stations